createdAt,value
2023-01-08T00:00:48.035Z,163.86
2023-01-08T00:01:47.993Z,166.13
2023-01-08T00:02:47.989Z,166.13
2023-01-08T00:03:48.164Z,164.35
2023-01-08T00:04:47.943Z,162.60
2023-01-08T00:05:47.944Z,161.35
2023-01-08T00:06:47.960Z,160.88
2023-01-08T00:07:48.689Z,159.36
2023-01-08T00:08:47.900Z,157.86
2023-01-08T00:09:47.889Z,156.10
2023-01-08T00:10:47.861Z,154.38
2023-01-08T00:11:47.898Z,153.26
2023-01-08T00:12:47.956Z,151.60
2023-01-08T00:13:48.333Z,151.33
2023-01-08T00:14:48.081Z,150.78
2023-01-08T00:15:47.940Z,149.98
2023-01-08T00:16:49.174Z,150.78
2023-01-08T00:17:47.887Z,151.60
2023-01-08T00:18:47.791Z,152.84
2023-01-08T00:19:48.236Z,153.82
2023-01-08T00:20:47.881Z,154.67
2023-01-08T00:21:47.759Z,155.82
2023-01-08T00:22:47.724Z,155.82
2023-01-08T00:23:47.757Z,155.82
2023-01-08T00:24:47.718Z,153.40
2023-01-08T00:25:49.183Z,146.45
2023-01-08T00:26:47.883Z,141.04
2023-01-08T00:27:47.707Z,137.36
2023-01-08T00:28:47.956Z,135.37
2023-01-08T00:29:47.695Z,134.82
2023-01-08T00:30:47.662Z,134.29
2023-01-08T00:31:47.650Z,132.28
2023-01-08T00:32:47.640Z,131.35
2023-01-08T00:33:47.659Z,131.76
2023-01-08T00:34:47.606Z,133.86
2023-01-08T00:35:47.970Z,135.58
2023-01-08T00:36:47.969Z,136.69
2023-01-08T00:37:47.889Z,137.13
2023-01-08T00:38:47.546Z,138.95
2023-01-08T00:39:47.562Z,140.10
2023-01-08T00:40:47.535Z,142.00
2023-01-08T00:41:47.532Z,141.64
2023-01-08T00:42:47.503Z,140.46
2023-01-08T00:43:47.546Z,140.69
2023-01-08T00:44:47.508Z,142.12
2023-01-08T00:45:47.679Z,144.81
2023-01-08T00:46:47.450Z,146.07
2023-01-08T00:47:47.448Z,145.56
2023-01-08T00:48:47.440Z,142.60
2023-01-08T00:49:47.452Z,136.91
2023-01-08T00:50:47.408Z,123.71
2023-01-08T00:51:47.415Z,114.60
2023-01-08T00:52:47.410Z,109.46
2023-01-08T00:53:47.408Z,109.17
2023-01-08T00:54:47.381Z,111.12
2023-01-08T00:55:47.388Z,114.45
2023-01-08T00:56:48.177Z,117.40
2023-01-08T00:57:47.392Z,122.45
2023-01-08T00:58:47.308Z,128.34
2023-01-08T00:59:49.210Z,133.54
2023-01-08T01:00:47.414Z,137.69
2023-01-08T01:01:47.463Z,139.99
2023-01-08T01:02:47.267Z,139.18
2023-01-08T01:03:47.331Z,139.06
2023-01-08T01:04:47.270Z,138.60
2023-01-08T01:05:47.282Z,135.26
2023-01-08T01:06:47.261Z,132.59
2023-01-08T01:07:47.238Z,130.33
2023-01-08T01:08:47.514Z,129.73
2023-01-08T01:09:48.377Z,131.86
2023-01-08T01:10:47.187Z,133.33
2023-01-08T01:11:47.242Z,132.07
2023-01-08T01:12:47.172Z,132.80
2023-01-08T01:13:47.179Z,133.86
2023-01-08T01:14:47.143Z,135.80
2023-01-08T01:15:47.140Z,136.02
2023-01-08T01:16:47.714Z,135.15
2023-01-08T01:17:47.121Z,133.12
2023-01-08T01:18:47.105Z,133.12
2023-01-08T01:19:47.108Z,133.75
2023-01-08T01:20:47.059Z,134.61
2023-01-08T01:21:47.076Z,137.36
2023-01-08T01:22:47.046Z,140.34
2023-01-08T01:23:47.893Z,144.93
2023-01-08T01:24:47.022Z,148.78
2023-01-08T01:25:47.022Z,152.70
2023-01-08T01:26:47.007Z,155.53
2023-01-08T01:27:46.999Z,157.27
2023-01-08T01:28:46.970Z,158.16
2023-01-08T01:29:46.982Z,158.76
2023-01-08T01:30:46.993Z,159.51
2023-01-08T01:31:46.970Z,156.83
2023-01-08T01:32:46.926Z,152.98
2023-01-08T01:33:46.939Z,150.38
2023-01-08T01:34:46.902Z,149.71
2023-01-08T01:35:46.906Z,150.11
2023-01-08T01:36:46.907Z,151.87
2023-01-08T01:37:46.877Z,155.10
2023-01-08T01:38:46.856Z,158.61
2023-01-08T01:39:47.020Z,161.81
2023-01-08T01:40:46.828Z,162.91
2023-01-08T01:41:46.841Z,162.13
2023-01-08T01:42:46.806Z,162.28
2023-01-08T01:43:46.822Z,160.42
2023-01-08T01:44:46.787Z,160.12
2023-01-08T01:45:46.808Z,160.12
2023-01-08T01:46:46.773Z,157.13
2023-01-08T01:47:46.769Z,152.15
2023-01-08T01:48:46.739Z,151.60
2023-01-08T01:49:46.735Z,150.11
2023-01-08T01:50:46.713Z,150.51
2023-01-08T01:51:47.014Z,152.15
2023-01-08T01:52:46.703Z,153.12
2023-01-08T01:53:46.704Z,152.43
2023-01-08T01:54:46.676Z,150.38
2023-01-08T01:55:46.667Z,144.93
2023-01-08T01:56:46.645Z,139.18
2023-01-08T01:57:46.663Z,134.39
2023-01-08T01:58:46.623Z,129.83
2023-01-08T01:59:46.625Z,125.37
2023-01-08T02:00:46.605Z,121.39
2023-01-08T02:01:46.667Z,118.31
2023-01-08T02:02:46.589Z,116.03
2023-01-08T02:03:46.994Z,113.14
2023-01-08T02:04:46.554Z,111.34
2023-01-08T02:05:46.555Z,109.17
2023-01-08T02:06:46.529Z,106.88
2023-01-08T02:07:46.554Z,104.49
2023-01-08T02:08:46.502Z,102.14
2023-01-08T02:09:46.553Z,99.60
2023-01-08T02:10:46.484Z,96.90
2023-01-08T02:11:46.486Z,94.61
2023-01-08T02:12:46.456Z,93.90
2023-01-08T02:13:46.486Z,91.25
2023-01-08T02:14:46.428Z,87.82
2023-01-08T02:15:46.455Z,84.81
2023-01-08T02:16:46.454Z,81.83
2023-01-08T02:17:46.413Z,79.06
2023-01-08T02:18:46.412Z,76.20
2023-01-08T02:19:47.048Z,73.66
2023-01-08T02:20:46.363Z,71.41
2023-01-08T02:21:46.373Z,69.34
2023-01-08T02:22:46.336Z,67.13
2023-01-08T02:23:46.375Z,65.15
2023-01-08T02:24:46.322Z,63.29
2023-01-08T02:25:46.322Z,61.71
2023-01-08T02:26:46.296Z,59.74
2023-01-08T02:27:46.427Z,57.88
2023-01-08T02:28:46.270Z,56.03
2023-01-08T02:29:46.370Z,54.44
2023-01-08T02:30:46.321Z,52.79
2023-01-08T02:31:46.526Z,51.44
2023-01-08T02:32:46.218Z,50.12
2023-01-08T02:33:46.242Z,48.70
2023-01-08T02:34:46.227Z,47.54
2023-01-08T02:35:46.633Z,46.23
2023-01-08T02:36:46.186Z,45.05
2023-01-08T02:37:46.177Z,43.87
2023-01-08T02:38:46.163Z,43.06
2023-01-08T02:39:46.683Z,41.95
2023-01-08T02:40:46.139Z,41.17
2023-01-08T02:41:46.143Z,40.34
2023-01-08T02:42:46.116Z,39.43
2023-01-08T02:43:46.148Z,38.63
2023-01-08T02:44:46.103Z,37.94
2023-01-08T02:45:46.131Z,37.17
2023-01-08T02:46:46.918Z,36.58
2023-01-08T02:47:46.071Z,35.90
2023-01-08T02:48:46.051Z,35.27
2023-01-08T02:49:46.067Z,34.74
2023-01-08T02:50:46.039Z,34.04
2023-01-08T02:51:46.064Z,33.42
2023-01-08T02:52:46.017Z,32.82
2023-01-08T02:53:46.031Z,32.26
2023-01-08T02:54:45.980Z,31.73
2023-01-08T02:55:46.124Z,31.40
2023-01-08T02:56:45.964Z,31.07
2023-01-08T02:57:46.285Z,30.78
2023-01-08T02:58:45.962Z,30.44
2023-01-08T02:59:45.974Z,29.82
2023-01-08T03:00:45.926Z,29.22
2023-01-08T03:01:46.072Z,28.76
2023-01-08T03:02:45.901Z,28.33
2023-01-08T03:03:46.135Z,27.92
2023-01-08T03:04:45.884Z,27.52
2023-01-08T03:05:45.898Z,27.20
2023-01-08T03:06:45.862Z,26.92
2023-01-08T03:07:46.077Z,26.61
2023-01-08T03:08:45.822Z,26.51
2023-01-08T03:09:45.836Z,26.51
2023-01-08T03:10:45.811Z,26.48
2023-01-08T03:11:46.646Z,26.49
2023-01-08T03:12:45.786Z,26.48
2023-01-08T03:13:45.804Z,26.48
2023-01-08T03:14:45.758Z,26.43
2023-01-08T03:15:46.069Z,26.31
2023-01-08T03:16:45.779Z,26.18
2023-01-08T03:17:45.747Z,26.17
2023-01-08T03:18:45.709Z,25.97
2023-01-08T03:19:45.814Z,25.94
2023-01-08T03:20:45.682Z,25.92
2023-01-08T03:21:45.690Z,25.84
2023-01-08T03:22:45.655Z,25.81
2023-01-08T03:23:45.686Z,25.76
2023-01-08T03:24:45.635Z,25.62
2023-01-08T03:25:45.640Z,25.39
2023-01-08T03:26:45.632Z,25.18
2023-01-08T03:27:45.629Z,24.97
2023-01-08T03:28:45.598Z,24.85
2023-01-08T03:29:45.597Z,24.81
2023-01-08T03:30:45.624Z,24.79
2023-01-08T03:31:46.087Z,24.79
2023-01-08T03:32:45.549Z,24.79
2023-01-08T03:33:45.548Z,24.69
2023-01-08T03:34:45.526Z,24.66
2023-01-08T03:35:45.720Z,24.65
2023-01-08T03:36:45.512Z,24.68
2023-01-08T03:37:45.504Z,24.53
2023-01-08T03:38:45.479Z,24.42
2023-01-08T03:39:45.503Z,24.21
2023-01-08T03:40:45.441Z,23.99
2023-01-08T03:41:45.452Z,23.70
2023-01-08T03:42:45.443Z,23.48
2023-01-08T03:43:45.467Z,23.27
2023-01-08T03:44:45.402Z,23.14
2023-01-08T03:45:45.444Z,22.99
2023-01-08T03:46:45.381Z,22.82
2023-01-08T03:47:45.580Z,22.57
2023-01-08T03:48:45.363Z,22.43
2023-01-08T03:49:45.369Z,22.40
2023-01-08T03:50:45.357Z,22.26
2023-01-08T03:51:45.666Z,22.15
2023-01-08T03:52:45.327Z,22.12
2023-01-08T03:53:45.323Z,21.96
2023-01-08T03:54:45.749Z,21.87
2023-01-08T03:55:45.771Z,21.87
2023-01-08T03:56:45.274Z,21.78
2023-01-08T03:57:45.838Z,21.78
2023-01-08T03:58:45.316Z,21.73
2023-01-08T03:59:45.300Z,21.64
2023-01-08T04:00:45.227Z,21.64
2023-01-08T04:01:45.341Z,21.67
2023-01-08T04:02:45.551Z,21.71
2023-01-08T04:03:45.213Z,21.71
2023-01-08T04:04:45.252Z,21.60
2023-01-08T04:05:45.164Z,21.49
2023-01-08T04:06:46.056Z,21.42
2023-01-08T04:07:46.084Z,21.42
2023-01-08T04:08:45.150Z,21.40
2023-01-08T04:09:45.158Z,21.49
2023-01-08T04:10:45.135Z,21.67
2023-01-08T04:11:45.124Z,21.96
2023-01-08T04:12:45.122Z,22.24
2023-01-08T04:13:45.084Z,22.45
2023-01-08T04:14:45.083Z,22.62
2023-01-08T04:15:45.141Z,22.74
2023-01-08T04:16:45.060Z,22.79
2023-01-08T04:17:45.034Z,22.79
2023-01-08T04:18:45.162Z,22.97
2023-01-08T04:19:45.132Z,23.02
2023-01-08T04:20:45.010Z,23.22
2023-01-08T04:21:45.481Z,23.38
2023-01-08T04:22:45.548Z,23.59
2023-01-08T04:23:45.094Z,23.64
2023-01-08T04:24:45.162Z,23.62
2023-01-08T04:25:44.949Z,23.61
2023-01-08T04:26:44.968Z,23.74
2023-01-08T04:27:45.115Z,23.73
2023-01-08T04:28:44.927Z,23.72
2023-01-08T04:29:44.915Z,23.70
2023-01-08T04:30:44.987Z,23.65
2023-01-08T04:31:45.138Z,23.56
2023-01-08T04:32:44.886Z,23.56
2023-01-08T04:33:44.939Z,23.58
2023-01-08T04:34:45.833Z,23.53
2023-01-08T04:35:44.851Z,23.53
2023-01-08T04:36:44.838Z,23.43
2023-01-08T04:37:44.807Z,23.32
2023-01-08T04:38:44.891Z,23.30
2023-01-08T04:39:44.910Z,23.14
2023-01-08T04:40:44.949Z,23.07
2023-01-08T04:41:44.800Z,23.04
2023-01-08T04:42:44.999Z,23.14
2023-01-08T04:43:45.021Z,23.04
2023-01-08T04:44:44.746Z,22.82
2023-01-08T04:45:44.726Z,22.55
2023-01-08T04:46:45.096Z,22.40
2023-01-08T04:47:44.818Z,22.24
2023-01-08T04:48:44.704Z,22.15
2023-01-08T04:49:44.687Z,21.96
2023-01-08T04:50:44.671Z,21.84
2023-01-08T04:51:45.154Z,21.82
2023-01-08T04:52:44.671Z,21.75
2023-01-08T04:53:44.632Z,21.73
2023-01-08T04:54:45.138Z,21.84
2023-01-08T04:55:45.148Z,21.98
2023-01-08T04:56:44.602Z,22.05
2023-01-08T04:57:44.601Z,22.24
2023-01-08T04:58:44.875Z,22.33
2023-01-08T04:59:44.777Z,22.50
2023-01-08T05:00:44.583Z,22.65
2023-01-08T05:01:44.644Z,22.69
2023-01-08T05:02:44.615Z,22.65
2023-01-08T05:03:44.623Z,22.79
2023-01-08T05:04:44.512Z,22.89
2023-01-08T05:05:44.489Z,23.04
2023-01-08T05:06:44.711Z,23.20
2023-01-08T05:07:44.492Z,23.35
2023-01-08T05:08:44.471Z,23.61
2023-01-08T05:09:44.444Z,23.97
2023-01-08T05:10:44.835Z,24.53
2023-01-08T05:11:44.859Z,25.01
2023-01-08T05:12:44.441Z,25.67
2023-01-08T05:13:44.392Z,26.13
2023-01-08T05:14:44.413Z,26.39
2023-01-08T05:15:44.434Z,26.39
2023-01-08T05:16:44.384Z,26.38
2023-01-08T05:17:44.370Z,26.61
2023-01-08T05:18:44.376Z,26.68
2023-01-08T05:19:45.112Z,26.92
2023-01-08T05:20:44.337Z,27.21
2023-01-08T05:21:44.311Z,27.68
2023-01-08T05:22:44.326Z,28.31
2023-01-08T05:23:45.124Z,28.10
2023-01-08T05:24:44.303Z,27.75
2023-01-08T05:25:44.291Z,27.43
2023-01-08T05:26:45.174Z,27.13
2023-01-08T05:27:45.100Z,27.35
2023-01-08T05:28:44.270Z,27.72
2023-01-08T05:29:44.213Z,28.29
2023-01-08T05:30:44.258Z,28.88
2023-01-08T05:31:44.206Z,29.32
2023-01-08T05:32:44.210Z,29.88
2023-01-08T05:33:44.179Z,30.27
2023-01-08T05:34:44.203Z,30.31
2023-01-08T05:35:44.158Z,30.80
2023-01-08T05:36:44.166Z,31.07
2023-01-08T05:37:44.122Z,31.47
2023-01-08T05:38:44.142Z,31.73
2023-01-08T05:39:44.176Z,32.09
2023-01-08T05:40:44.115Z,32.22
2023-01-08T05:41:44.106Z,32.07
2023-01-08T05:42:44.083Z,31.99
2023-01-08T05:43:44.078Z,32.07
2023-01-08T05:44:44.055Z,32.12
2023-01-08T05:45:44.048Z,32.31
2023-01-08T05:46:44.251Z,32.77
2023-01-08T05:47:44.010Z,33.26
2023-01-08T05:48:44.027Z,34.35
2023-01-08T05:49:43.995Z,35.60
2023-01-08T05:50:44.123Z,36.24
2023-01-08T05:51:43.976Z,35.99
2023-01-08T05:52:43.965Z,36.05
2023-01-08T05:53:43.962Z,36.27
2023-01-08T05:54:44.191Z,36.68
2023-01-08T05:55:43.925Z,36.33
2023-01-08T05:56:43.959Z,35.18
2023-01-08T05:57:43.913Z,34.51
2023-01-08T05:58:43.911Z,34.35
2023-01-08T05:59:43.883Z,34.46
2023-01-08T06:00:43.883Z,34.57
2023-01-08T06:01:43.889Z,35.12
2023-01-08T06:02:43.900Z,35.69
2023-01-08T06:03:43.840Z,36.30
2023-01-08T06:04:43.842Z,36.68
2023-01-08T06:05:43.819Z,37.04
2023-01-08T06:06:43.818Z,37.07
2023-01-08T06:07:43.792Z,36.27
2023-01-08T06:08:43.797Z,35.69
2023-01-08T06:09:43.765Z,35.60
2023-01-08T06:10:44.204Z,35.50
2023-01-08T06:11:44.206Z,36.15
2023-01-08T06:12:43.752Z,36.46
2023-01-08T06:13:43.753Z,36.62
2023-01-08T06:14:44.196Z,37.00
2023-01-08T06:15:43.728Z,36.97
2023-01-08T06:16:43.715Z,36.30
2023-01-08T06:17:43.691Z,35.81
2023-01-08T06:18:44.203Z,35.03
2023-01-08T06:19:44.147Z,34.49
2023-01-08T06:20:44.117Z,34.63
2023-01-08T06:21:43.643Z,34.69
2023-01-08T06:22:44.208Z,34.97
2023-01-08T06:23:43.599Z,34.86
2023-01-08T06:24:43.612Z,35.27
2023-01-08T06:25:43.594Z,36.02
2023-01-08T06:26:43.601Z,36.52
2023-01-08T06:27:43.575Z,36.81
2023-01-08T06:28:43.580Z,37.37
2023-01-08T06:29:43.543Z,37.83
2023-01-08T06:30:43.776Z,38.32
2023-01-08T06:31:43.582Z,38.67
2023-01-08T06:32:43.521Z,38.88
2023-01-08T06:33:43.533Z,39.10
2023-01-08T06:34:43.529Z,39.32
2023-01-08T06:35:43.470Z,39.36
2023-01-08T06:36:43.476Z,39.43
2023-01-08T06:37:43.447Z,39.58
2023-01-08T06:38:43.653Z,39.14
2023-01-08T06:39:43.433Z,38.71
2023-01-08T06:40:43.438Z,37.97
2023-01-08T06:41:43.399Z,37.40
2023-01-08T06:42:43.780Z,36.58
2023-01-08T06:43:43.382Z,36.05
2023-01-08T06:44:43.398Z,35.35
2023-01-08T06:45:43.351Z,34.86
2023-01-08T06:46:44.050Z,34.74
2023-01-08T06:47:43.942Z,34.74
2023-01-08T06:48:43.339Z,34.46
2023-01-08T06:49:43.312Z,34.40
2023-01-08T06:50:44.053Z,34.43
2023-01-08T06:51:43.373Z,34.18
2023-01-08T06:52:43.292Z,34.49
2023-01-08T06:53:43.269Z,34.49
2023-01-08T06:54:43.283Z,34.15
2023-01-08T06:55:43.248Z,33.88
2023-01-08T06:56:53.339Z,33.28
2023-01-08T06:57:44.237Z,33.23
2023-01-08T06:58:43.246Z,32.90
2023-01-08T06:59:43.194Z,32.74
2023-01-08T07:00:43.212Z,31.87
2023-01-08T07:01:43.298Z,31.26
2023-01-08T07:02:43.396Z,30.89
2023-01-08T07:03:43.260Z,30.89
2023-01-08T07:04:43.149Z,30.80
2023-01-08T07:05:43.133Z,30.96
2023-01-08T07:06:43.146Z,31.17
2023-01-08T07:07:43.109Z,31.56
2023-01-08T07:08:43.133Z,31.49
2023-01-08T07:09:43.079Z,31.73
2023-01-08T07:10:43.272Z,32.12
2023-01-08T07:11:43.067Z,32.14
2023-01-08T07:12:43.059Z,32.24
2023-01-08T07:13:43.050Z,32.17
2023-01-08T07:14:43.238Z,32.39
2023-01-08T07:15:43.096Z,32.26
2023-01-08T07:16:43.020Z,32.24
2023-01-08T07:17:43.002Z,32.39
2023-01-08T07:18:43.030Z,32.51
2023-01-08T07:19:42.980Z,32.46
2023-01-08T07:20:42.980Z,32.12
2023-01-08T07:21:42.960Z,31.99
2023-01-08T07:22:43.001Z,31.95
2023-01-08T07:23:42.929Z,31.73
2023-01-08T07:24:42.950Z,31.68
2023-01-08T07:25:42.916Z,31.61
2023-01-08T07:26:42.910Z,31.26
2023-01-08T07:27:42.890Z,30.84
2023-01-08T07:28:42.894Z,30.71
2023-01-08T07:29:42.863Z,30.42
2023-01-08T07:30:42.884Z,30.07
2023-01-08T07:31:42.920Z,29.84
2023-01-08T07:32:42.852Z,29.82
2023-01-08T07:33:42.814Z,29.61
2023-01-08T07:34:42.831Z,29.52
2023-01-08T07:35:42.809Z,29.61
2023-01-08T07:36:42.798Z,29.50
2023-01-08T07:37:42.776Z,29.38
2023-01-08T07:38:42.769Z,29.48
2023-01-08T07:39:42.742Z,29.38
2023-01-08T07:40:42.761Z,29.34
2023-01-08T07:41:42.723Z,29.20
2023-01-08T07:42:42.742Z,29.16
2023-01-08T07:43:42.704Z,29.18
2023-01-08T07:44:42.703Z,29.22
2023-01-08T07:45:42.705Z,29.22
2023-01-08T07:46:42.744Z,29.12
2023-01-08T07:47:42.657Z,28.84
2023-01-08T07:48:42.658Z,28.54
2023-01-08T07:49:42.627Z,28.24
2023-01-08T07:50:42.645Z,27.95
2023-01-08T07:51:42.621Z,27.79
2023-01-08T07:52:42.603Z,27.79
2023-01-08T07:53:42.597Z,27.59
2023-01-08T07:54:42.590Z,27.46
2023-01-08T07:55:42.575Z,27.25
2023-01-08T07:56:42.576Z,26.75
2023-01-08T07:57:42.555Z,26.44
2023-01-08T07:58:42.538Z,26.20
2023-01-08T07:59:42.520Z,26.03
2023-01-08T08:00:42.527Z,25.73
2023-01-08T08:01:42.671Z,25.55
2023-01-08T08:02:43.788Z,25.41
2023-01-08T08:03:43.354Z,25.18
2023-01-08T08:04:42.476Z,25.00
2023-01-08T08:05:42.455Z,24.81
2023-01-08T08:06:42.467Z,24.56
2023-01-08T08:07:42.441Z,24.39
2023-01-08T08:08:42.535Z,24.14
2023-01-08T08:09:42.409Z,24.01
2023-01-08T08:10:42.588Z,23.88
2023-01-08T08:11:42.405Z,23.73
2023-01-08T08:12:42.407Z,23.56
2023-01-08T08:13:42.360Z,23.51
2023-01-08T08:14:42.372Z,23.25
2023-01-08T08:15:42.433Z,23.14
2023-01-08T08:16:42.345Z,23.12
2023-01-08T08:17:42.322Z,22.99
2023-01-08T08:18:42.336Z,22.87
2023-01-08T08:19:42.300Z,22.77
2023-01-08T08:20:42.296Z,22.69
2023-01-08T08:21:42.292Z,22.50
2023-01-08T08:22:42.286Z,22.36
2023-01-08T08:23:42.265Z,22.15
2023-01-08T08:24:42.241Z,22.03
2023-01-08T08:25:42.239Z,21.89
2023-01-08T08:26:42.214Z,21.64
2023-01-08T08:27:42.213Z,21.67
2023-01-08T08:28:42.199Z,21.55
2023-01-08T08:29:42.209Z,21.51
2023-01-08T08:30:42.830Z,21.44
2023-01-08T08:31:42.246Z,21.33
2023-01-08T08:32:42.144Z,21.33
2023-01-08T08:33:42.171Z,21.29
2023-01-08T08:34:42.125Z,21.31
2023-01-08T08:35:42.136Z,21.33
2023-01-08T08:36:42.107Z,21.27
2023-01-08T08:37:42.115Z,21.27
2023-01-08T08:38:42.087Z,21.18
2023-01-08T08:39:42.085Z,21.10
2023-01-08T08:40:42.056Z,21.08
2023-01-08T08:41:42.092Z,20.99
2023-01-08T08:42:42.033Z,20.91
2023-01-08T08:43:42.050Z,20.91
2023-01-08T08:44:43.007Z,20.87
2023-01-08T08:45:42.028Z,20.81
2023-01-08T08:46:42.037Z,20.79
2023-01-08T08:47:41.991Z,20.70
2023-01-08T08:48:41.970Z,20.70
2023-01-08T08:49:41.968Z,20.68
2023-01-08T08:50:41.944Z,20.64
2023-01-08T08:51:42.107Z,20.77
2023-01-08T08:52:41.918Z,20.77
2023-01-08T08:53:41.938Z,21.04
2023-01-08T08:54:41.905Z,21.23
2023-01-08T08:55:41.900Z,21.25
2023-01-08T08:56:41.886Z,21.40
2023-01-08T08:57:41.886Z,21.55
2023-01-08T08:58:41.866Z,21.69
2023-01-08T08:59:41.883Z,21.94
2023-01-08T09:00:41.851Z,22.17
2023-01-08T09:01:42.100Z,22.52
2023-01-08T09:02:42.485Z,22.84
2023-01-08T09:03:42.259Z,23.17
2023-01-08T09:04:41.809Z,23.43
2023-01-08T09:05:42.317Z,23.68
2023-01-08T09:06:41.769Z,23.92
2023-01-08T09:07:41.773Z,24.07
2023-01-08T09:08:41.751Z,24.22
2023-01-08T09:09:41.760Z,24.52
2023-01-08T09:10:41.860Z,24.82
2023-01-08T09:11:41.726Z,25.15
2023-01-08T09:12:41.701Z,25.58
2023-01-08T09:13:41.701Z,26.59
2023-01-08T09:14:41.694Z,27.72
2023-01-08T09:15:41.763Z,28.76
2023-01-08T09:16:41.733Z,29.84
2023-01-08T09:17:41.652Z,30.78
2023-01-08T09:18:41.638Z,31.54
2023-01-08T09:19:41.621Z,32.74
2023-01-08T09:20:41.620Z,33.50
2023-01-08T09:21:41.598Z,34.04
2023-01-08T09:22:41.581Z,34.23
2023-01-08T09:23:41.589Z,34.80
2023-01-08T09:24:41.571Z,35.30
2023-01-08T09:25:41.573Z,35.90
2023-01-08T09:26:41.555Z,36.71
2023-01-08T09:27:42.309Z,37.07
2023-01-08T09:28:41.519Z,37.37
2023-01-08T09:29:41.523Z,37.67
2023-01-08T09:30:41.491Z,37.60
2023-01-08T09:31:42.396Z,37.07
2023-01-08T09:32:41.469Z,35.87
2023-01-08T09:33:42.344Z,34.89
2023-01-08T09:34:42.338Z,34.01
2023-01-08T09:35:42.295Z,33.37
2023-01-08T09:36:41.431Z,33.42
2023-01-08T09:37:42.327Z,33.42
2023-01-08T09:38:41.410Z,33.18
2023-01-08T09:39:42.548Z,32.39
2023-01-08T09:40:41.359Z,31.56
2023-01-08T09:41:41.404Z,31.05
2023-01-08T09:42:41.356Z,31.10
2023-01-08T09:43:41.356Z,31.12
2023-01-08T09:44:41.333Z,31.40
2023-01-08T09:45:41.341Z,32.14
2023-01-08T09:46:41.412Z,32.90
2023-01-08T09:47:41.349Z,33.39
2023-01-08T09:48:41.289Z,33.63
2023-01-08T09:49:41.352Z,33.96
2023-01-08T09:50:41.344Z,34.37
2023-01-08T09:51:41.354Z,34.86
2023-01-08T09:52:43.549Z,35.69
2023-01-08T09:53:41.265Z,36.05
2023-01-08T09:54:41.216Z,36.30
2023-01-08T09:55:41.327Z,36.49
2023-01-08T09:56:41.195Z,36.30
2023-01-08T09:57:41.203Z,36.15
2023-01-08T09:58:41.193Z,35.93
2023-01-08T09:59:41.191Z,35.72
2023-01-08T10:00:41.236Z,35.27
2023-01-08T10:01:41.382Z,35.27
2023-01-08T10:02:41.259Z,35.62
2023-01-08T10:03:41.169Z,35.72
2023-01-08T10:04:41.102Z,36.27
2023-01-08T10:05:41.114Z,37.17
2023-01-08T10:06:41.072Z,38.32
2023-01-08T10:07:41.090Z,39.65
2023-01-08T10:08:41.057Z,40.69
2023-01-08T10:09:41.054Z,41.45
2023-01-08T10:10:41.030Z,41.86
2023-01-08T10:11:41.039Z,42.20
2023-01-08T10:12:41.034Z,42.80
2023-01-08T10:13:41.012Z,43.24
2023-01-08T10:14:41.362Z,43.28
2023-01-08T10:15:41.099Z,43.11
2023-01-08T10:16:40.979Z,42.33
2023-01-08T10:17:41.005Z,41.53
2023-01-08T10:18:40.949Z,40.65
2023-01-08T10:19:40.941Z,39.69
2023-01-08T10:20:40.901Z,39.03
2023-01-08T10:21:40.924Z,39.03
2023-01-08T10:22:41.364Z,39.54
2023-01-08T10:23:40.900Z,40.15
2023-01-08T10:24:40.871Z,40.65
2023-01-08T10:25:40.912Z,42.16
2023-01-08T10:26:40.852Z,43.83
2023-01-08T10:27:40.876Z,44.95
2023-01-08T10:28:40.827Z,44.57
2023-01-08T10:29:40.840Z,42.89
2023-01-08T10:30:41.373Z,41.78
2023-01-08T10:31:40.848Z,41.09
2023-01-08T10:32:40.771Z,40.07
2023-01-08T10:33:40.832Z,38.99
2023-01-08T10:34:40.749Z,38.81
2023-01-08T10:35:40.757Z,38.60
2023-01-08T10:36:40.752Z,39.65
2023-01-08T10:37:41.956Z,42.63
2023-01-08T10:38:41.123Z,46.44
2023-01-08T10:39:40.744Z,48.75
2023-01-08T10:40:40.699Z,50.21
2023-01-08T10:41:40.704Z,52.56
2023-01-08T10:42:40.644Z,54.65
2023-01-08T10:43:40.765Z,56.41
2023-01-08T10:44:40.625Z,58.12
2023-01-08T10:45:40.764Z,60.29
2023-01-08T10:46:40.851Z,62.91
2023-01-08T10:47:40.622Z,66.54
2023-01-08T10:48:40.634Z,71.35
2023-01-08T10:49:40.957Z,76.61
2023-01-08T10:50:40.583Z,80.27
2023-01-08T10:51:41.012Z,84.63
2023-01-08T10:52:40.559Z,89.40
2023-01-08T10:53:40.734Z,93.90
2023-01-08T10:54:40.581Z,95.58
2023-01-08T10:55:40.534Z,100.43
2023-01-08T10:56:40.518Z,105.87
2023-01-08T10:57:40.505Z,111.19
2023-01-08T10:58:40.481Z,115.95
2023-01-08T10:59:40.669Z,119.15
2023-01-08T11:00:40.608Z,123.35
2023-01-08T11:01:40.748Z,128.14
2023-01-08T11:02:40.521Z,130.43
2023-01-08T11:03:40.445Z,132.28
2023-01-08T11:04:40.444Z,135.58
2023-01-08T11:05:40.412Z,139.52
2023-01-08T11:06:40.400Z,143.57
2023-01-08T11:07:40.439Z,147.74
2023-01-08T11:08:40.371Z,148.65
2023-01-08T11:09:40.415Z,150.92
2023-01-08T11:10:40.401Z,149.31
2023-01-08T11:11:40.341Z,142.36
2023-01-08T11:12:40.324Z,135.48
2023-01-08T11:13:40.325Z,133.01
2023-01-08T11:14:40.315Z,134.93
2023-01-08T11:15:41.071Z,138.83
2023-01-08T11:16:40.334Z,141.52
2023-01-08T11:17:40.279Z,144.93
2023-01-08T11:18:40.254Z,146.45
2023-01-08T11:19:40.268Z,145.06
2023-01-08T11:20:41.198Z,141.40
2023-01-08T11:21:40.249Z,141.28
2023-01-08T11:22:40.205Z,143.70
2023-01-08T11:23:41.134Z,148.26
2023-01-08T11:24:40.200Z,152.98
2023-01-08T11:25:40.932Z,157.71
2023-01-08T11:26:40.419Z,162.75
2023-01-08T11:27:41.270Z,165.31
2023-01-08T11:28:40.154Z,168.29
2023-01-08T11:29:40.164Z,171.56
2023-01-08T11:30:40.112Z,173.50
2023-01-08T11:31:40.370Z,176.42
2023-01-08T11:32:40.249Z,181.76
2023-01-08T11:33:40.260Z,184.75
2023-01-08T11:34:41.049Z,185.77
2023-01-08T11:35:40.080Z,184.55
2023-01-08T11:36:40.343Z,185.14
2023-01-08T11:37:40.045Z,187.77
2023-01-08T11:38:40.403Z,191.46
2023-01-08T11:39:40.424Z,194.05
2023-01-08T11:40:40.420Z,195.43
2023-01-08T11:41:40.018Z,197.41
2023-01-08T11:42:40.424Z,197.06
2023-01-08T11:43:40.427Z,197.65
2023-01-08T11:44:40.428Z,196.59
2023-01-08T11:45:40.457Z,198.12
2023-01-08T11:46:40.428Z,196.82
2023-01-08T11:47:39.937Z,193.03
2023-01-08T11:48:39.902Z,189.16
2023-01-08T11:49:39.946Z,186.50
2023-01-08T11:50:39.966Z,183.14
2023-01-08T11:51:39.900Z,178.48
2023-01-08T11:52:39.852Z,172.61
2023-01-08T11:53:39.863Z,168.46
2023-01-08T11:54:39.838Z,165.48
2023-01-08T11:55:40.099Z,161.35
2023-01-08T11:56:39.804Z,156.69
2023-01-08T11:57:40.167Z,152.56
2023-01-08T11:58:39.793Z,148.52
2023-01-08T11:59:39.786Z,144.56
2023-01-08T12:00:39.766Z,141.76
2023-01-08T12:01:39.859Z,139.99
2023-01-08T12:02:39.765Z,138.49
2023-01-08T12:03:40.320Z,136.91
2023-01-08T12:04:39.739Z,136.02
2023-01-08T12:05:40.063Z,132.90
2023-01-08T12:06:40.421Z,130.13
2023-01-08T12:07:39.874Z,127.08
2023-01-08T12:08:39.701Z,124.91
2023-01-08T12:09:39.679Z,123.26
2023-01-08T12:10:40.470Z,120.52
2023-01-08T12:11:39.660Z,118.40
2023-01-08T12:12:40.528Z,117.65
2023-01-08T12:13:40.470Z,118.31
2023-01-08T12:14:40.451Z,119.07
2023-01-08T12:15:39.909Z,118.90
2023-01-08T12:16:39.622Z,117.16
2023-01-08T12:17:39.602Z,114.45
2023-01-08T12:18:39.576Z,113.83
2023-01-08T12:19:39.647Z,113.83
2023-01-08T12:20:39.528Z,112.16
2023-01-08T12:21:39.530Z,108.82
2023-01-08T12:22:39.517Z,103.27
2023-01-08T12:23:39.532Z,97.69
2023-01-08T12:24:39.796Z,92.96
2023-01-08T12:25:39.501Z,86.73
2023-01-08T12:26:39.471Z,80.97
2023-01-08T12:27:56.273Z,76.68
2023-01-08T12:28:40.465Z,72.51
2023-01-08T12:29:39.461Z,69.23
2023-01-08T12:30:39.434Z,65.87
2023-01-08T12:31:39.463Z,62.81
2023-01-08T12:32:39.425Z,60.08
2023-01-08T12:33:39.400Z,57.02
2023-01-08T12:34:39.389Z,54.05
2023-01-08T12:35:39.385Z,51.56
2023-01-08T12:36:39.333Z,49.30
2023-01-08T12:37:39.460Z,47.59
2023-01-08T12:38:39.349Z,46.08
2023-01-08T12:39:39.313Z,44.57
2023-01-08T12:40:39.476Z,42.97
2023-01-08T12:41:39.291Z,41.33
2023-01-08T12:42:39.302Z,39.99
2023-01-08T12:43:39.274Z,38.60
2023-01-08T12:44:39.267Z,37.56
2023-01-08T12:45:39.436Z,36.55